createdAt,value
2022-11-18T00:00:21.613Z,91.31
2022-11-18T00:01:01.563Z,91.01
2022-11-18T00:01:41.649Z,90.92
2022-11-18T00:02:22.577Z,90.71
2022-11-18T00:03:02.645Z,90.75
2022-11-18T00:03:44.515Z,90.78
2022-11-18T00:04:24.674Z,90.40
2022-11-18T00:05:04.543Z,90.71
2022-11-18T00:05:44.646Z,91.05
2022-11-18T00:06:30.548Z,90.58
2022-11-18T00:07:10.746Z,90.73
2022-11-18T00:07:50.525Z,90.84
2022-11-18T00:08:31.707Z,90.59
2022-11-18T00:09:11.576Z,90.73
2022-11-18T00:09:51.800Z,90.71
2022-11-18T00:10:31.545Z,90.80
2022-11-18T00:11:48.582Z,90.34
2022-11-18T00:13:00.498Z,90.73
2022-11-18T00:14:12.560Z,90.43
2022-11-18T00:15:06.562Z,90.37
2022-11-18T00:16:00.532Z,90.58
2022-11-18T00:16:54.557Z,90.62
2022-11-18T00:17:48.574Z,90.54
2022-11-18T00:18:42.586Z,90.55
2022-11-18T00:19:43.537Z,90.82
2022-11-18T00:20:37.493Z,90.40
2022-11-18T00:21:31.569Z,90.25
2022-11-18T00:22:19.624Z,89.96
2022-11-18T00:22:53.629Z,90.05
2022-11-18T00:23:40.555Z,90.03
2022-11-18T00:24:14.626Z,90.33
2022-11-18T00:25:01.488Z,90.01
2022-11-18T00:25:35.566Z,89.77
2022-11-18T00:26:22.484Z,90.17
2022-11-18T00:26:57.696Z,90.20
2022-11-18T00:27:44.552Z,90.43
2022-11-18T00:28:18.573Z,90.17
2022-11-18T00:29:05.552Z,89.82
2022-11-18T00:29:39.649Z,90.36
2022-11-18T00:30:26.515Z,90.82
2022-11-18T00:31:00.545Z,90.27
2022-11-18T00:31:47.528Z,90.47
2022-11-18T00:32:21.582Z,90.42
2022-11-18T00:33:08.534Z,90.57
2022-11-18T00:33:48.537Z,89.94
2022-11-18T00:34:28.508Z,90.26
2022-11-18T00:35:08.566Z,90.31
2022-11-18T00:35:48.533Z,90.28
2022-11-18T00:36:29.619Z,90.10
2022-11-18T00:37:10.537Z,90.32
2022-11-18T00:37:50.570Z,90.03
2022-11-18T00:38:31.538Z,90.69
2022-11-18T00:39:11.581Z,90.63
2022-11-18T00:39:51.529Z,90.79
2022-11-18T00:40:31.583Z,90.53
2022-11-18T00:41:15.499Z,90.81
2022-11-18T00:42:15.138Z,90.88
2022-11-18T00:42:58.505Z,90.31
2022-11-18T00:43:46.567Z,90.61
2022-11-18T00:44:20.217Z,90.92
2022-11-18T00:45:07.542Z,90.55
2022-11-18T00:45:43.817Z,90.72
2022-11-18T00:46:30.462Z,90.69
2022-11-18T00:47:04.548Z,90.76
2022-11-18T00:47:51.524Z,90.66
2022-11-18T00:48:25.606Z,90.75
2022-11-18T00:49:05.513Z,90.41
2022-11-18T00:49:39.526Z,90.38
2022-11-18T00:50:14.497Z,90.28
2022-11-18T00:51:00.516Z,90.90
2022-11-18T00:51:34.587Z,90.75
2022-11-18T00:52:08.140Z,90.12
2022-11-18T00:52:48.467Z,90.88
2022-11-18T00:53:23.651Z,90.38
2022-11-18T00:53:57.309Z,90.59
2022-11-18T00:54:38.541Z,90.79
2022-11-18T00:55:12.513Z,90.61
2022-11-18T00:55:46.148Z,90.54
2022-11-18T00:56:26.533Z,90.40
2022-11-18T00:57:00.660Z,90.63
2022-11-18T00:57:34.200Z,89.96
2022-11-18T00:58:14.491Z,90.46
2022-11-18T00:58:48.579Z,90.65
2022-11-18T00:59:22.236Z,90.89
2022-11-18T01:00:03.482Z,90.57
2022-11-18T01:00:37.590Z,90.88
2022-11-18T01:01:11.227Z,90.55
2022-11-18T01:01:51.587Z,90.60
2022-11-18T01:02:25.656Z,90.32
2022-11-18T01:02:59.141Z,89.96
2022-11-18T01:03:39.466Z,90.60
2022-11-18T01:04:13.576Z,89.91
2022-11-18T01:04:48.193Z,90.64
2022-11-18T01:05:28.505Z,90.48
2022-11-18T01:06:02.518Z,90.62
2022-11-18T01:06:36.239Z,90.22
2022-11-18T01:07:16.541Z,91.01
2022-11-18T01:07:50.589Z,90.72
2022-11-18T01:08:24.275Z,91.04
2022-11-18T01:09:04.486Z,90.72
2022-11-18T01:09:38.542Z,90.63
2022-11-18T01:10:12.310Z,90.92
2022-11-18T01:10:54.465Z,91.06
2022-11-18T01:11:46.943Z,90.57
2022-11-18T01:12:40.137Z,90.62
2022-11-18T01:13:27.459Z,90.53
2022-11-18T01:14:01.501Z,90.58
2022-11-18T01:14:35.187Z,90.50
2022-11-18T01:15:16.438Z,90.02
2022-11-18T01:16:09.509Z,90.15
2022-11-18T01:16:43.166Z,90.35
2022-11-18T01:17:30.442Z,89.90
2022-11-18T01:18:04.188Z,89.81
2022-11-18T01:18:51.427Z,89.70
2022-11-18T01:19:26.496Z,89.74
2022-11-18T01:20:13.450Z,89.37
2022-11-18T01:20:47.674Z,89.83
2022-11-18T01:21:34.517Z,90.09
2022-11-18T01:22:08.209Z,90.25
2022-11-18T01:22:55.448Z,90.13
2022-11-18T01:23:29.561Z,90.35
2022-11-18T01:24:17.448Z,90.99
2022-11-18T01:24:51.142Z,90.74
2022-11-18T01:25:39.485Z,91.17
2022-11-18T01:26:16.152Z,90.86
2022-11-18T01:26:56.495Z,91.07
2022-11-18T01:27:30.509Z,90.83
2022-11-18T01:28:04.837Z,90.76
2022-11-18T01:28:45.462Z,90.77
2022-11-18T01:29:19.728Z,90.60
2022-11-18T01:29:54.137Z,90.22
2022-11-18T01:30:34.603Z,90.30
2022-11-18T01:31:13.577Z,90.34
2022-11-18T01:32:16.935Z,90.43
2022-11-18T01:32:47.503Z,90.62
2022-11-18T01:33:21.473Z,90.80
2022-11-18T01:33:55.112Z,91.19
2022-11-18T01:34:36.440Z,90.81
2022-11-18T01:35:10.511Z,90.77
2022-11-18T01:35:44.982Z,91.13
2022-11-18T01:36:34.397Z,91.28
2022-11-18T01:37:08.679Z,91.12
2022-11-18T01:37:43.115Z,91.53
2022-11-18T01:38:23.472Z,91.49
2022-11-18T01:38:57.525Z,91.83
2022-11-18T01:39:31.484Z,91.39
2022-11-18T01:40:14.466Z,91.25
2022-11-18T01:40:48.477Z,91.37
2022-11-18T01:41:25.183Z,91.38
2022-11-18T01:42:05.441Z,90.92
2022-11-18T01:42:39.572Z,91.01
2022-11-18T01:43:18.252Z,90.82
2022-11-18T01:44:07.465Z,90.86
2022-11-18T01:45:28.508Z,90.69
2022-11-18T01:46:02.132Z,90.38
2022-11-18T01:46:42.426Z,91.16
2022-11-18T01:47:16.502Z,91.13
2022-11-18T01:48:17.074Z,91.23
2022-11-18T01:49:13.456Z,91.30
2022-11-18T01:49:47.436Z,91.61
2022-11-18T01:50:22.509Z,90.78
2022-11-18T01:51:08.394Z,91.42
2022-11-18T01:51:54.499Z,90.96
2022-11-18T01:52:29.990Z,91.17
2022-11-18T01:53:21.417Z,91.06
2022-11-18T01:54:30.619Z,91.20
2022-11-18T01:55:12.439Z,90.49
2022-11-18T01:56:02.432Z,90.88
2022-11-18T01:56:50.473Z,91.25
2022-11-18T01:57:38.464Z,91.66
2022-11-18T01:58:19.015Z,91.37
2022-11-18T01:59:31.625Z,91.35
2022-11-18T02:00:07.682Z,91.19
2022-11-18T02:00:54.424Z,91.38
2022-11-18T02:01:28.154Z,91.29
2022-11-18T02:02:21.396Z,91.23
2022-11-18T02:02:55.181Z,91.46
2022-11-18T02:03:42.460Z,91.86
2022-11-18T02:04:16.442Z,91.34
2022-11-18T02:04:59.557Z,91.32
2022-11-18T02:05:33.809Z,90.93
2022-11-18T02:06:10.166Z,91.48
2022-11-18T02:06:52.397Z,91.95
2022-11-18T02:07:32.551Z,91.57
2022-11-18T02:08:13.417Z,91.86
2022-11-18T02:08:53.590Z,91.73
2022-11-18T02:09:33.364Z,91.90
2022-11-18T02:10:22.513Z,91.71
2022-11-18T02:10:56.071Z,91.11
2022-11-18T02:12:00.534Z,91.65
2022-11-18T02:12:34.969Z,91.94
2022-11-18T02:13:22.378Z,91.81
2022-11-18T02:13:56.757Z,92.21
2022-11-18T02:14:50.421Z,92.44
2022-11-18T02:16:08.418Z,92.42
2022-11-18T02:17:28.431Z,91.70
2022-11-18T02:18:26.442Z,91.65
2022-11-18T02:19:10.553Z,91.61
2022-11-18T02:19:53.478Z,91.64
2022-11-18T02:20:38.502Z,91.79
2022-11-18T02:22:04.473Z,91.50
2022-11-18T02:23:26.476Z,91.94
2022-11-18T02:24:35.462Z,92.09
2022-11-18T02:25:59.409Z,91.66
2022-11-18T02:27:25.442Z,92.01
2022-11-18T02:29:06.727Z,92.26
2022-11-18T02:30:14.386Z,92.09
2022-11-18T02:31:07.468Z,92.71
2022-11-18T02:32:17.431Z,92.68
2022-11-18T02:33:03.494Z,92.49
2022-11-18T02:34:06.568Z,92.58
2022-11-18T02:34:51.596Z,92.15
2022-11-18T02:36:00.448Z,92.72
2022-11-18T02:36:54.419Z,92.63
2022-11-18T02:37:39.950Z,92.91
2022-11-18T02:38:39.449Z,92.66
2022-11-18T02:39:20.498Z,92.17
2022-11-18T02:40:18.010Z,92.65
2022-11-18T02:41:06.385Z,92.48
2022-11-18T02:41:41.384Z,92.78
2022-11-18T02:42:15.749Z,92.54
2022-11-18T02:43:02.378Z,92.94
2022-11-18T02:43:48.417Z,92.93
2022-11-18T02:44:24.884Z,92.38
2022-11-18T02:45:19.344Z,92.91
2022-11-18T02:45:58.485Z,93.17
2022-11-18T02:46:51.361Z,93.41
2022-11-18T02:47:27.564Z,92.97
2022-11-18T02:48:21.357Z,93.20
2022-11-18T02:49:01.371Z,92.56
2022-11-18T02:49:48.373Z,93.03
2022-11-18T02:50:32.404Z,93.15
2022-11-18T02:51:14.473Z,93.13
2022-11-18T02:51:56.388Z,92.76
2022-11-18T02:52:39.386Z,93.11
2022-11-18T02:53:22.332Z,93.20
2022-11-18T02:54:14.445Z,93.27
2022-11-18T02:54:48.954Z,93.16
2022-11-18T02:55:37.326Z,92.95
2022-11-18T02:56:11.221Z,93.14
2022-11-18T02:57:00.367Z,93.34
2022-11-18T02:57:34.685Z,93.16
2022-11-18T02:58:22.366Z,93.10
2022-11-18T02:58:56.033Z,93.13
2022-11-18T02:59:36.349Z,92.81
2022-11-18T03:00:11.502Z,92.93
2022-11-18T03:00:45.221Z,93.62
2022-11-18T03:01:37.507Z,93.81
2022-11-18T03:02:11.437Z,93.32
2022-11-18T03:02:49.006Z,93.57
2022-11-18T03:03:40.400Z,93.59
2022-11-18T03:04:14.424Z,93.21
2022-11-18T03:04:56.408Z,93.24
2022-11-18T03:05:55.402Z,93.67
2022-11-18T03:06:52.369Z,93.22
2022-11-18T03:07:46.370Z,93.08
2022-11-18T03:08:39.313Z,92.93
2022-11-18T03:09:34.419Z,92.61
2022-11-18T03:10:21.363Z,92.86
2022-11-18T03:11:24.442Z,93.54
2022-11-18T03:12:48.389Z,92.96
2022-11-18T03:13:31.396Z,93.29
2022-11-18T03:14:37.367Z,93.42
2022-11-18T03:15:39.381Z,93.38
2022-11-18T03:17:14.391Z,93.37
2022-11-18T03:18:38.410Z,94.17
2022-11-18T03:20:09.366Z,93.95
2022-11-18T03:21:00.354Z,93.61
2022-11-18T03:21:52.520Z,93.51
2022-11-18T03:22:57.376Z,93.40
2022-11-18T03:23:47.436Z,93.73
2022-11-18T03:24:39.358Z,93.33
2022-11-18T03:25:19.369Z,93.93
2022-11-18T03:26:24.385Z,93.80
2022-11-18T03:27:07.364Z,93.57
2022-11-18T03:28:17.280Z,93.64
2022-11-18T03:29:10.390Z,94.06
2022-11-18T03:30:13.332Z,93.61
2022-11-18T03:30:56.480Z,93.95
2022-11-18T03:32:00.317Z,93.57
2022-11-18T03:32:36.371Z,93.71
2022-11-18T03:33:31.299Z,93.73
2022-11-18T03:34:18.329Z,93.21
2022-11-18T03:35:27.350Z,93.20
2022-11-18T03:36:01.367Z,93.38
2022-11-18T03:36:57.173Z,93.01
2022-11-18T03:37:41.313Z,93.09
2022-11-18T03:38:43.289Z,93.14
2022-11-18T03:39:38.293Z,92.84
2022-11-18T03:40:36.371Z,92.92
2022-11-18T03:41:32.365Z,92.81
2022-11-18T03:42:42.373Z,92.67
2022-11-18T03:43:40.301Z,92.42
2022-11-18T03:44:39.297Z,92.16
2022-11-18T03:45:40.399Z,92.24
2022-11-18T03:46:40.279Z,92.75
2022-11-18T03:47:41.287Z,92.26
2022-11-18T03:48:30.362Z,92.23
2022-11-18T03:49:14.674Z,92.51
2022-11-18T03:50:05.291Z,91.76
2022-11-18T03:50:54.398Z,92.04
2022-11-18T03:51:45.331Z,92.29
2022-11-18T03:52:30.449Z,92.23
2022-11-18T03:53:11.321Z,92.08
2022-11-18T03:54:00.421Z,91.70
2022-11-18T03:54:43.277Z,91.92
2022-11-18T03:55:30.345Z,91.66
2022-11-18T03:56:24.344Z,91.21
2022-11-18T03:57:29.330Z,91.54
2022-11-18T03:58:27.384Z,91.34
2022-11-18T03:59:29.357Z,91.31
2022-11-18T04:00:26.245Z,91.31
2022-11-18T04:01:29.497Z,90.77
2022-11-18T04:02:49.324Z,90.60
2022-11-18T04:03:43.310Z,90.84
2022-11-18T04:04:39.310Z,90.36
2022-11-18T04:05:34.298Z,90.79
2022-11-18T04:06:59.394Z,90.01
2022-11-18T04:08:13.322Z,89.82
2022-11-18T04:09:04.298Z,89.65
2022-11-18T04:09:45.380Z,89.59
2022-11-18T04:11:13.346Z,89.38
2022-11-18T04:12:04.649Z,89.71
2022-11-18T04:13:06.755Z,89.34
2022-11-18T04:13:44.286Z,89.38
2022-11-18T04:14:27.311Z,88.78
2022-11-18T04:15:08.385Z,89.34
2022-11-18T04:15:49.297Z,88.76
2022-11-18T04:16:29.510Z,88.57
2022-11-18T04:17:21.309Z,88.66
2022-11-18T04:18:01.353Z,88.22
2022-11-18T04:18:41.302Z,88.38
2022-11-18T04:19:21.631Z,88.07
2022-11-18T04:20:03.329Z,87.89
2022-11-18T04:20:44.377Z,88.49
2022-11-18T04:21:24.263Z,87.99
2022-11-18T04:22:04.352Z,88.03
2022-11-18T04:22:44.279Z,87.89
2022-11-18T04:23:24.341Z,88.05
2022-11-18T04:24:04.244Z,88.30
2022-11-18T04:24:44.278Z,87.91
2022-11-18T04:25:24.311Z,88.14
2022-11-18T04:26:04.416Z,88.31
2022-11-18T04:26:44.308Z,88.43
2022-11-18T04:27:24.308Z,88.48
2022-11-18T04:28:04.282Z,88.68
2022-11-18T04:28:44.472Z,88.15
2022-11-18T04:29:25.252Z,87.87
2022-11-18T04:30:05.326Z,88.04
2022-11-18T04:30:45.298Z,88.67
2022-11-18T04:31:25.286Z,88.24
2022-11-18T04:32:07.233Z,88.37
2022-11-18T04:32:47.313Z,88.70
2022-11-18T04:33:27.213Z,88.16
2022-11-18T04:34:07.238Z,88.43
2022-11-18T04:34:47.512Z,88.64
2022-11-18T04:35:41.271Z,88.11
2022-11-18T04:36:21.309Z,88.00
2022-11-18T04:37:01.285Z,88.50
2022-11-18T04:37:41.281Z,88.08
2022-11-18T04:38:22.374Z,88.74
2022-11-18T04:39:02.252Z,88.39
2022-11-18T04:39:42.309Z,88.73
2022-11-18T04:40:23.218Z,88.78
2022-11-18T04:41:03.297Z,88.23
2022-11-18T04:42:02.317Z,89.08
2022-11-18T04:42:42.245Z,88.66
2022-11-18T04:43:23.261Z,88.49
2022-11-18T04:44:13.014Z,88.91
2022-11-18T04:44:53.260Z,88.78
2022-11-18T04:45:33.301Z,89.05
2022-11-18T04:46:13.301Z,88.79
2022-11-18T04:46:53.282Z,88.88
2022-11-18T04:47:33.276Z,88.96
2022-11-18T04:48:13.256Z,88.50
2022-11-18T04:48:53.234Z,88.52
2022-11-18T04:49:34.263Z,88.80
2022-11-18T04:50:15.203Z,88.68
2022-11-18T04:50:55.353Z,89.17
2022-11-18T04:51:35.290Z,89.01
2022-11-18T04:52:15.329Z,89.32
2022-11-18T04:52:56.224Z,89.00
2022-11-18T04:53:36.322Z,89.07
2022-11-18T04:54:17.271Z,88.90
2022-11-18T04:54:57.367Z,88.84
2022-11-18T04:55:37.384Z,88.66
2022-11-18T04:56:17.513Z,88.39
2022-11-18T04:56:58.209Z,88.78
2022-11-18T04:57:38.316Z,88.94
2022-11-18T04:58:18.257Z,88.61
2022-11-18T04:58:58.248Z,88.61
2022-11-18T04:59:39.237Z,88.90
2022-11-18T05:00:19.306Z,89.63
2022-11-18T05:00:59.309Z,89.04
2022-11-18T05:01:39.300Z,89.30
2022-11-18T05:02:20.250Z,89.66
2022-11-18T05:03:00.381Z,89.42
2022-11-18T05:03:40.232Z,89.76
2022-11-18T05:04:30.778Z,89.26
2022-11-18T05:05:12.206Z,89.05
2022-11-18T05:05:52.294Z,89.46
2022-11-18T05:06:32.236Z,89.51
2022-11-18T05:07:13.291Z,89.07
2022-11-18T05:07:53.297Z,89.35
2022-11-18T05:08:33.313Z,89.24
2022-11-18T05:09:13.262Z,89.33
2022-11-18T05:09:53.218Z,89.13
2022-11-18T05:10:33.233Z,88.72
2022-11-18T05:11:33.100Z,89.31
2022-11-18T05:12:44.200Z,89.45
2022-11-18T05:13:24.271Z,88.77
2022-11-18T05:14:04.237Z,89.12
2022-11-18T05:14:49.634Z,89.04
2022-11-18T05:15:27.269Z,88.86
2022-11-18T05:16:14.220Z,88.32
2022-11-18T05:16:48.226Z,88.14
2022-11-18T05:17:35.179Z,87.76
2022-11-18T05:18:09.255Z,87.69
2022-11-18T05:18:56.178Z,87.21
2022-11-18T05:19:30.784Z,87.65
2022-11-18T05:20:12.225Z,87.70
2022-11-18T05:20:52.374Z,87.90
2022-11-18T05:21:33.185Z,87.30
2022-11-18T05:22:14.289Z,87.87
2022-11-18T05:22:54.177Z,87.28
2022-11-18T05:23:34.308Z,87.31
2022-11-18T05:24:14.245Z,87.46
2022-11-18T05:24:54.298Z,87.51
2022-11-18T05:25:34.232Z,87.82
2022-11-18T05:26:18.276Z,87.61
2022-11-18T05:26:59.172Z,87.68
2022-11-18T05:27:39.294Z,87.56
2022-11-18T05:28:19.180Z,87.16
2022-11-18T05:28:59.298Z,87.12
2022-11-18T05:29:40.233Z,87.32
2022-11-18T05:30:21.538Z,86.92
2022-11-18T05:31:02.184Z,86.94
2022-11-18T05:31:42.329Z,87.15
2022-11-18T05:32:22.252Z,86.56
2022-11-18T05:33:02.185Z,87.00
2022-11-18T05:33:43.197Z,86.98
2022-11-18T05:34:37.307Z,86.67
2022-11-18T05:35:31.245Z,86.49
2022-11-18T05:36:22.193Z,86.29
2022-11-18T05:36:56.322Z,85.62
2022-11-18T05:37:43.232Z,86.58
2022-11-18T05:38:17.282Z,86.40
2022-11-18T05:39:07.222Z,86.18
2022-11-18T05:39:41.292Z,86.59
2022-11-18T05:40:28.183Z,86.49
2022-11-18T05:41:02.315Z,86.16
2022-11-18T05:42:01.268Z,86.51
2022-11-18T05:43:00.036Z,86.05
2022-11-18T05:43:41.195Z,85.85
2022-11-18T05:44:21.197Z,85.62
2022-11-18T05:45:01.173Z,85.80
2022-11-18T05:45:41.213Z,85.76
2022-11-18T05:46:21.166Z,86.19
2022-11-18T05:47:08.180Z,86.02
2022-11-18T05:48:07.168Z,86.31
2022-11-18T05:49:01.262Z,86.40
2022-11-18T05:49:55.241Z,86.38
2022-11-18T05:50:51.173Z,86.25
2022-11-18T05:51:45.176Z,86.49
2022-11-18T05:52:32.261Z,86.46
2022-11-18T05:53:06.281Z,85.95
2022-11-18T05:53:55.224Z,86.26
2022-11-18T05:54:29.209Z,85.94
2022-11-18T05:55:18.218Z,85.69
2022-11-18T05:56:20.275Z,85.63
2022-11-18T05:57:07.212Z,85.90
2022-11-18T05:57:48.180Z,85.58
2022-11-18T05:58:42.206Z,85.60
2022-11-18T05:59:36.195Z,86.11
2022-11-18T06:00:31.174Z,85.61
2022-11-18T06:01:29.196Z,85.83
2022-11-18T06:02:37.166Z,85.61
2022-11-18T06:03:31.420Z,85.75
2022-11-18T06:04:38.243Z,86.14
2022-11-18T06:05:19.159Z,86.53
2022-11-18T06:06:03.204Z,86.52
2022-11-18T06:06:43.270Z,86.26
2022-11-18T06:07:48.283Z,86.33
2022-11-18T06:08:31.301Z,86.08
2022-11-18T06:09:13.273Z,86.27
2022-11-18T06:10:00.848Z,86.22
2022-11-18T06:10:45.312Z,85.97
2022-11-18T06:11:26.149Z,85.73
2022-11-18T06:12:08.246Z,85.79
2022-11-18T06:12:51.210Z,85.76
2022-11-18T06:13:56.183Z,85.63
2022-11-18T06:15:04.119Z,85.33
2022-11-18T06:15:59.126Z,85.20
2022-11-18T06:16:56.349Z,84.92
2022-11-18T06:18:05.178Z,85.62
2022-11-18T06:18:59.211Z,85.64
2022-11-18T06:19:53.132Z,85.59
2022-11-18T06:20:49.164Z,85.76
2022-11-18T06:21:44.126Z,85.62
2022-11-18T06:22:42.140Z,85.65
2022-11-18T06:23:26.193Z,85.66
2022-11-18T06:24:07.234Z,85.50
2022-11-18T06:24:48.130Z,85.45
2022-11-18T06:25:29.173Z,85.62
2022-11-18T06:26:11.912Z,85.74
2022-11-18T06:26:53.133Z,85.60
2022-11-18T06:27:33.282Z,85.68
2022-11-18T06:28:15.137Z,85.32
2022-11-18T06:28:55.205Z,85.39
2022-11-18T06:29:36.158Z,84.98
2022-11-18T06:30:17.264Z,85.34
2022-11-18T06:30:57.116Z,84.66
2022-11-18T06:31:37.148Z,85.08
2022-11-18T06:32:18.180Z,84.81
2022-11-18T06:32:59.196Z,85.35
2022-11-18T06:33:39.128Z,84.91
2022-11-18T06:34:19.340Z,85.49
2022-11-18T06:34:59.153Z,85.40
2022-11-18T06:35:39.178Z,84.75
2022-11-18T06:36:19.082Z,84.75
2022-11-18T06:36:59.255Z,84.53
2022-11-18T06:37:40.102Z,84.84
2022-11-18T06:38:20.272Z,84.89
2022-11-18T06:39:00.110Z,84.33
2022-11-18T06:39:40.195Z,84.89
2022-11-18T06:40:20.161Z,84.66
2022-11-18T06:41:00.197Z,84.57
2022-11-18T06:41:41.110Z,84.78
2022-11-18T06:42:40.518Z,84.42
2022-11-18T06:43:40.078Z,84.27
2022-11-18T06:44:21.254Z,84.22
2022-11-18T06:45:01.177Z,83.91
2022-11-18T06:45:41.188Z,83.76
2022-11-18T06:46:38.608Z,84.29
2022-11-18T06:47:12.893Z,83.68
2022-11-18T06:47:54.089Z,83.56
2022-11-18T06:48:28.138Z,84.01
2022-11-18T06:49:02.770Z,83.97
2022-11-18T06:49:43.117Z,84.02
2022-11-18T06:50:17.185Z,83.68
2022-11-18T06:50:57.170Z,84.00
2022-11-18T06:51:39.027Z,83.94
2022-11-18T06:52:19.130Z,84.14
2022-11-18T06:53:00.137Z,84.17
2022-11-18T06:53:42.170Z,84.22
2022-11-18T06:54:22.293Z,84.34
2022-11-18T06:55:02.068Z,83.87
2022-11-18T06:55:42.145Z,84.52
2022-11-18T06:56:25.073Z,84.16
2022-11-18T06:57:06.156Z,84.14
2022-11-18T06:57:46.121Z,83.52
2022-11-18T06:58:26.114Z,83.78
2022-11-18T06:59:06.152Z,84.17
2022-11-18T06:59:46.106Z,84.16
2022-11-18T07:00:26.062Z,84.13
2022-11-18T07:01:22.308Z,84.50
2022-11-18T07:02:03.117Z,85.20
2022-11-18T07:02:43.215Z,85.06
2022-11-18T07:03:23.056Z,85.45
2022-11-18T07:04:06.251Z,85.31
2022-11-18T07:04:47.167Z,85.22
2022-11-18T07:05:27.089Z,84.81
2022-11-18T07:06:07.120Z,84.98
2022-11-18T07:06:48.081Z,85.04
2022-11-18T07:07:28.177Z,84.58
2022-11-18T07:08:08.117Z,84.85
2022-11-18T07:08:49.137Z,84.15
2022-11-18T07:09:29.165Z,84.45
2022-11-18T07:10:09.106Z,84.16
2022-11-18T07:10:49.172Z,83.96
2022-11-18T07:11:32.094Z,84.18
2022-11-18T07:12:12.120Z,84.27
2022-11-18T07:12:52.084Z,84.41
2022-11-18T07:13:32.410Z,84.35
2022-11-18T07:14:14.046Z,83.93
2022-11-18T07:14:54.137Z,84.55
2022-11-18T07:15:34.048Z,84.58
2022-11-18T07:16:20.327Z,84.61
2022-11-18T07:17:00.084Z,84.73
2022-11-18T07:17:40.108Z,85.26
2022-11-18T07:18:20.064Z,85.03
2022-11-18T07:19:02.101Z,84.79
2022-11-18T07:19:42.061Z,84.19
2022-11-18T07:20:22.126Z,84.65
2022-11-18T07:21:02.030Z,85.07
2022-11-18T07:21:43.361Z,84.92
2022-11-18T07:22:23.173Z,84.33
2022-11-18T07:23:03.152Z,84.92
2022-11-18T07:23:43.093Z,84.17
2022-11-18T07:24:24.150Z,84.57
2022-11-18T07:25:04.081Z,84.48
2022-11-18T07:25:45.481Z,84.62
2022-11-18T07:26:26.090Z,84.05
2022-11-18T07:27:06.185Z,84.60
2022-11-18T07:27:47.133Z,84.10
2022-11-18T07:28:27.131Z,84.59
2022-11-18T07:29:07.126Z,84.55
2022-11-18T07:29:47.114Z,84.70
2022-11-18T07:30:28.106Z,84.75
2022-11-18T07:31:13.252Z,84.25
2022-11-18T07:31:53.033Z,84.09
2022-11-18T07:32:33.438Z,84.69
2022-11-18T07:33:14.056Z,84.14
2022-11-18T07:33:55.116Z,84.74
2022-11-18T07:34:35.066Z,84.16
2022-11-18T07:35:18.374Z,85.10
2022-11-18T07:35:58.045Z,84.34
2022-11-18T07:36:38.070Z,84.39
2022-11-18T07:37:18.124Z,84.63
2022-11-18T07:37:58.108Z,84.14
2022-11-18T07:38:39.056Z,84.71
2022-11-18T07:39:19.431Z,84.77
2022-11-18T07:40:00.138Z,84.61
2022-11-18T07:40:40.176Z,84.48
2022-11-18T07:41:24.227Z,84.55
2022-11-18T07:42:04.058Z,83.81
2022-11-18T07:42:48.997Z,84.46
2022-11-18T07:43:29.115Z,84.17
2022-11-18T07:44:11.070Z,84.03
2022-11-18T07:44:52.090Z,83.94
2022-11-18T07:45:32.077Z,83.84
2022-11-18T07:46:52.194Z,84.32
2022-11-18T07:47:32.095Z,84.26
2022-11-18T07:48:12.039Z,83.88
2022-11-18T07:48:54.997Z,84.02
2022-11-18T07:49:36.034Z,84.01
2022-11-18T07:50:16.085Z,84.14
2022-11-18T07:50:57.046Z,83.60
2022-11-18T07:51:35.147Z,84.06
2022-11-18T07:52:08.806Z,84.17
2022-11-18T07:52:49.090Z,84.35
2022-11-18T07:53:23.061Z,84.42
2022-11-18T07:53:56.961Z,83.93
2022-11-18T07:54:38.103Z,84.14
2022-11-18T07:55:12.148Z,84.54
2022-11-18T07:55:45.661Z,84.18
2022-11-18T07:56:27.065Z,83.90
2022-11-18T07:57:01.192Z,84.68
2022-11-18T07:57:34.705Z,86.18
2022-11-18T07:58:14.993Z,85.80
2022-11-18T07:58:50.104Z,87.02
2022-11-18T07:59:24.773Z,86.41
2022-11-18T08:00:06.069Z,86.24
2022-11-18T08:00:40.088Z,86.59
2022-11-18T08:01:22.539Z,87.82
2022-11-18T08:02:04.098Z,88.43
2022-11-18T08:02:38.065Z,88.29
2022-11-18T08:03:14.609Z,87.06
2022-11-18T08:03:56.045Z,85.81
2022-11-18T08:04:30.084Z,85.67
2022-11-18T08:05:04.452Z,85.33
2022-11-18T08:05:44.053Z,85.27
2022-11-18T08:06:20.186Z,85.26
2022-11-18T08:06:53.781Z,84.54
2022-11-18T08:07:34.115Z,84.93
2022-11-18T08:08:08.089Z,84.51
2022-11-18T08:08:41.940Z,84.36
2022-11-18T08:09:23.009Z,84.22
2022-11-18T08:09:57.192Z,83.86
2022-11-18T08:10:30.965Z,84.14
2022-11-18T08:11:18.984Z,84.76
2022-11-18T08:11:56.234Z,84.08
2022-11-18T08:12:30.758Z,84.42
2022-11-18T08:13:11.018Z,83.04
2022-11-18T08:13:46.110Z,83.92
2022-11-18T08:14:22.777Z,83.87
2022-11-18T08:15:04.020Z,83.36
2022-11-18T08:15:38.190Z,84.27
2022-11-18T08:16:17.636Z,83.96
2022-11-18T08:16:58.082Z,83.83
2022-11-18T08:17:32.050Z,84.44
2022-11-18T08:18:08.495Z,84.40
2022-11-18T08:18:53.025Z,84.13
2022-11-18T08:19:27.204Z,83.89
2022-11-18T08:20:00.725Z,83.59
2022-11-18T08:20:42.005Z,84.48
2022-11-18T08:21:17.552Z,83.74
2022-11-18T08:21:51.805Z,83.96
2022-11-18T08:22:32.052Z,83.50
2022-11-18T08:23:06.249Z,84.42
2022-11-18T08:23:42.281Z,84.45
2022-11-18T08:24:23.005Z,85.18
2022-11-18T08:24:57.277Z,85.21
2022-11-18T08:25:30.733Z,85.05
2022-11-18T08:26:17.978Z,85.07
2022-11-18T08:26:52.331Z,84.78
2022-11-18T08:27:26.709Z,84.78
2022-11-18T08:28:08.116Z,85.23
2022-11-18T08:28:42.643Z,85.07
2022-11-18T08:29:21.820Z,85.00
2022-11-18T08:30:05.066Z,85.74
2022-11-18T08:30:41.024Z,85.59
2022-11-18T08:31:14.641Z,85.70
2022-11-18T08:31:54.974Z,85.77
2022-11-18T08:32:29.026Z,85.89
2022-11-18T08:33:03.022Z,85.76
2022-11-18T08:33:42.952Z,85.72
2022-11-18T08:34:17.010Z,85.75
2022-11-18T08:34:51.691Z,85.56
2022-11-18T08:35:36.093Z,86.21
2022-11-18T08:36:17.109Z,86.05
2022-11-18T08:36:51.677Z,86.28
2022-11-18T08:37:32.012Z,86.90
2022-11-18T08:38:06.027Z,86.81
2022-11-18T08:38:53.040Z,86.69
2022-11-18T08:39:28.087Z,87.16
2022-11-18T08:40:15.983Z,88.18
2022-11-18T08:40:59.003Z,88.28
2022-11-18T08:41:55.951Z,88.87
2022-11-18T08:42:50.023Z,89.42
2022-11-18T08:43:43.973Z,89.96
2022-11-18T08:44:39.989Z,90.66
2022-11-18T08:45:33.988Z,91.18
2022-11-18T08:46:21.001Z,91.44
2022-11-18T08:46:55.022Z,91.61
2022-11-18T08:47:43.011Z,92.24
2022-11-18T08:48:17.172Z,92.38
2022-11-18T08:49:04.995Z,92.69
2022-11-18T08:49:38.984Z,92.79
2022-11-18T08:50:26.058Z,92.62
2022-11-18T08:50:59.962Z,92.66
2022-11-18T08:51:41.023Z,93.22
2022-11-18T08:52:20.997Z,92.63
2022-11-18T08:53:01.925Z,92.18
2022-11-18T08:53:42.028Z,92.68
2022-11-18T08:54:21.979Z,92.90
2022-11-18T08:55:02.267Z,92.65
2022-11-18T08:55:43.005Z,93.29
2022-11-18T08:56:26.074Z,92.54
2022-11-18T08:57:06.977Z,92.34
2022-11-18T08:57:47.869Z,92.80
2022-11-18T08:58:27.929Z,92.24
2022-11-18T08:59:08.869Z,92.66
2022-11-18T08:59:48.974Z,92.60
2022-11-18T09:00:29.061Z,92.93
2022-11-18T09:01:13.035Z,92.41
2022-11-18T09:01:53.103Z,92.56
2022-11-18T09:02:32.965Z,92.40
2022-11-18T09:03:13.044Z,92.16
2022-11-18T09:03:54.367Z,92.79
2022-11-18T09:04:35.002Z,91.84
2022-11-18T09:05:16.013Z,92.12
2022-11-18T09:05:56.973Z,91.61
2022-11-18T09:06:36.897Z,91.54
2022-11-18T09:07:17.138Z,91.09
2022-11-18T09:07:56.983Z,91.50
2022-11-18T09:08:37.065Z,91.24
2022-11-18T09:09:16.928Z,91.20
2022-11-18T09:09:57.953Z,91.09
2022-11-18T09:10:37.981Z,91.55
2022-11-18T09:11:24.046Z,91.50
2022-11-18T09:12:04.008Z,91.60
2022-11-18T09:12:43.989Z,92.17
2022-11-18T09:15:24.990Z,92.07
2022-11-18T09:16:06.002Z,91.86
2022-11-18T09:16:45.925Z,92.08
2022-11-18T09:17:25.961Z,92.23
2022-11-18T09:18:05.927Z,92.50
2022-11-18T09:18:45.988Z,92.28
2022-11-18T09:19:46.061Z,92.45
2022-11-18T09:20:28.884Z,92.24
2022-11-18T09:21:09.025Z,92.17
2022-11-18T09:21:55.961Z,92.56
2022-11-18T09:22:29.985Z,92.50
2022-11-18T09:23:17.933Z,92.85
2022-11-18T09:23:59.038Z,92.99
2022-11-18T09:24:52.944Z,92.22
2022-11-18T09:25:46.984Z,92.75
2022-11-18T09:26:40.929Z,92.96
2022-11-18T09:27:34.983Z,93.20
2022-11-18T09:28:28.917Z,92.74
2022-11-18T09:29:17.965Z,92.86
2022-11-18T09:29:51.986Z,92.97